createdAt,value
2022-09-12T00:01:25.670Z,101008.44
2022-09-12T00:03:58.061Z,101014.19
2022-09-12T00:06:26.353Z,101015.03
2022-09-12T00:08:59.017Z,101003.97
2022-09-12T00:11:26.554Z,100996.72
2022-09-12T00:13:57.532Z,100996.53
2022-09-12T00:16:27.251Z,100992.28
2022-09-12T00:18:53.905Z,100990.59
2022-09-12T00:21:21.419Z,100985.84
2022-09-12T00:23:48.235Z,100981.31
2022-09-12T00:26:15.687Z,100979.25
2022-09-12T00:28:42.287Z,100974.22
2022-09-12T00:31:12.143Z,100977.34
2022-09-12T00:33:39.097Z,100972.84
2022-09-12T00:36:15.425Z,100961.34
2022-09-12T00:38:44.042Z,100966.25
2022-09-12T00:41:16.302Z,100965.59
2022-09-12T00:43:48.986Z,100965.78
2022-09-12T00:46:18.534Z,100962.88
2022-09-12T00:48:52.199Z,100964.75
2022-09-12T00:51:19.521Z,100954.09
2022-09-12T00:53:48.216Z,100956.25
2022-09-12T00:56:17.704Z,100955.72
2022-09-12T00:59:05.616Z,100940.44
2022-09-12T01:01:32.897Z,100945.91
2022-09-12T01:04:00.523Z,100942.06
2022-09-12T01:06:32.295Z,100943.94
2022-09-12T01:09:03.506Z,100949.72
2022-09-12T01:11:34.272Z,100943.09
2022-09-12T01:14:00.980Z,100941.34
2022-09-12T01:16:27.632Z,100946.66
2022-09-12T01:19:18.830Z,100943.03
2022-09-12T01:21:56.768Z,100945.31
2022-09-12T01:24:55.945Z,100937.19
2022-09-12T01:27:41.334Z,100936.16
2022-09-12T01:30:38.521Z,100942.63
2022-09-12T01:33:16.505Z,100937.22
2022-09-12T01:35:52.231Z,100937.47
2022-09-12T01:38:36.199Z,100934.47
2022-09-12T01:41:27.265Z,100940.00
2022-09-12T01:44:12.867Z,100940.25
2022-09-12T01:46:54.522Z,100932.56
2022-09-12T01:49:29.554Z,100943.88
2022-09-12T01:52:08.973Z,100932.00
2022-09-12T01:54:45.278Z,100928.34
2022-09-12T01:57:19.416Z,100931.97
2022-09-12T01:59:51.439Z,100928.75
2022-09-12T02:02:30.268Z,100924.50
2022-09-12T02:05:13.563Z,100914.81
2022-09-12T02:07:46.827Z,100921.00
2022-09-12T02:10:21.544Z,100919.44
2022-09-12T02:12:54.925Z,100909.06
2022-09-12T02:15:30.011Z,100910.78
2022-09-12T02:18:01.431Z,100903.91
2022-09-12T02:20:47.528Z,100906.25
2022-09-12T02:23:22.449Z,100910.72
2022-09-12T02:25:53.733Z,100910.50
2022-09-12T02:28:27.616Z,100916.91
2022-09-12T02:31:22.281Z,100909.66
2022-09-12T02:33:53.181Z,100908.22
2022-09-12T02:36:28.664Z,100905.59
2022-09-12T02:38:55.496Z,100904.28
2022-09-12T02:41:22.766Z,100904.28
2022-09-12T02:43:51.504Z,100901.53
2022-09-12T02:46:26.382Z,100904.53
2022-09-12T02:48:54.271Z,100895.16
2022-09-12T02:51:23.732Z,100889.88
2022-09-12T02:53:50.945Z,100891.19
2022-09-12T02:56:23.532Z,100885.91
2022-09-12T02:58:50.354Z,100887.88
2022-09-12T03:01:35.901Z,100883.34
2022-09-12T03:04:32.480Z,100883.97
2022-09-12T03:07:26.633Z,100879.72
2022-09-12T03:09:58.021Z,100879.25
2022-09-12T03:12:34.029Z,100874.56
2022-09-12T03:15:10.759Z,100873.91
2022-09-12T03:18:01.664Z,100880.72
2022-09-12T03:20:47.607Z,100873.72
2022-09-12T03:23:24.887Z,100870.94
2022-09-12T03:25:59.022Z,100874.63
2022-09-12T03:28:26.739Z,100865.25
2022-09-12T03:30:55.751Z,100872.09
2022-09-12T03:33:23.940Z,100871.50
2022-09-12T03:35:51.483Z,100866.75
2022-09-12T03:38:18.918Z,100869.94
2022-09-12T03:40:47.786Z,100869.94
2022-09-12T03:43:16.094Z,100870.66
2022-09-12T03:45:42.716Z,100862.78
2022-09-12T03:48:09.331Z,100872.59
2022-09-12T03:50:36.098Z,100860.22
2022-09-12T03:53:03.791Z,100865.72
2022-09-12T03:55:31.009Z,100857.44
2022-09-12T03:57:57.651Z,100864.91
2022-09-12T04:00:24.609Z,100868.88
2022-09-12T04:02:56.865Z,100866.97
2022-09-12T04:05:24.423Z,100870.88
2022-09-12T04:07:51.546Z,100866.81
2022-09-12T04:10:18.254Z,100869.72
2022-09-12T04:12:45.252Z,100868.25
2022-09-12T04:15:11.918Z,100869.09
2022-09-12T04:17:38.488Z,100871.63
2022-09-12T04:20:05.615Z,100867.06
2022-09-12T04:22:33.193Z,100870.28
2022-09-12T04:24:59.802Z,100864.50
2022-09-12T04:27:26.461Z,100858.94
2022-09-12T04:29:54.736Z,100861.72
2022-09-12T04:32:22.308Z,100861.91
2022-09-12T04:34:49.334Z,100859.31
2022-09-12T04:37:16.864Z,100859.59
2022-09-12T04:39:43.681Z,100861.47
2022-09-12T04:42:10.356Z,100857.31
2022-09-12T04:44:37.471Z,100859.88
2022-09-12T04:47:04.136Z,100855.69
2022-09-12T04:49:30.775Z,100859.34
2022-09-12T04:51:57.349Z,100863.66
2022-09-12T04:54:23.957Z,100861.72
2022-09-12T04:56:52.443Z,100865.94
2022-09-12T04:59:20.435Z,100855.03
2022-09-12T05:01:48.286Z,100845.28
2022-09-12T05:04:15.560Z,100852.94
2022-09-12T05:06:42.900Z,100851.06
2022-09-12T05:09:12.629Z,100840.19
2022-09-12T05:12:03.336Z,100841.38
2022-09-12T05:14:27.585Z,100832.81
2022-09-12T05:16:54.200Z,100836.78
2022-09-12T05:19:20.840Z,100827.38
2022-09-12T05:21:47.320Z,100834.81
2022-09-12T05:24:13.928Z,100836.47
2022-09-12T05:26:40.424Z,100822.84
2022-09-12T05:29:07.266Z,100830.97
2022-09-12T05:31:34.715Z,100828.84
2022-09-12T05:34:01.587Z,100832.53
2022-09-12T05:36:31.322Z,100844.97
2022-09-12T05:39:00.000Z,100825.41
2022-09-12T05:41:30.636Z,100833.06
2022-09-12T05:43:59.232Z,100832.66
2022-09-12T05:46:28.327Z,100827.34
2022-09-12T05:48:56.830Z,100836.56
2022-09-12T05:51:28.566Z,100835.19
2022-09-12T05:53:57.791Z,100843.25
2022-09-12T05:56:29.680Z,100842.31
2022-09-12T05:58:59.943Z,100849.03
2022-09-12T06:01:27.838Z,100846.63
2022-09-12T06:03:56.559Z,100854.50
2022-09-12T06:06:24.948Z,100849.75
2022-09-12T06:08:55.862Z,100845.75
2022-09-12T06:11:25.972Z,100859.13
2022-09-12T06:13:53.154Z,100852.88
2022-09-12T06:16:23.260Z,100858.34
2022-09-12T06:18:53.195Z,100853.56
2022-09-12T06:21:21.746Z,100855.84
2022-09-12T06:23:49.076Z,100858.31
2022-09-12T06:26:18.358Z,100861.44
2022-09-12T06:28:45.078Z,100863.25
2022-09-12T06:31:20.456Z,100855.75
2022-09-12T06:33:49.348Z,100862.78
2022-09-12T06:36:39.983Z,100860.78
2022-09-12T06:39:18.291Z,100856.72
2022-09-12T06:41:45.576Z,100860.78
2022-09-12T06:44:15.875Z,100860.41
2022-09-12T06:46:42.549Z,100865.06
2022-09-12T06:49:09.076Z,100857.03
2022-09-12T06:51:38.174Z,100850.88
2022-09-12T06:54:05.332Z,100859.03
2022-09-12T06:56:32.085Z,100863.38
2022-09-12T06:58:59.332Z,100861.97
2022-09-12T07:01:28.764Z,100864.66
2022-09-12T07:03:59.197Z,100856.03
2022-09-12T07:06:32.046Z,100852.44
2022-09-12T07:09:00.867Z,100859.16
2022-09-12T07:11:33.454Z,100852.28
2022-09-12T07:14:02.629Z,100845.38
2022-09-12T07:16:30.407Z,100859.66
2022-09-12T07:19:03.325Z,100857.63
2022-09-12T07:21:30.642Z,100860.78
2022-09-12T07:23:58.159Z,100858.50
2022-09-12T07:26:27.551Z,100860.22
2022-09-12T07:29:07.930Z,100849.19
2022-09-12T07:31:42.521Z,100856.34
2022-09-12T07:34:09.188Z,100853.72
2022-09-12T07:36:36.136Z,100854.94
2022-09-12T07:39:03.031Z,100845.22
2022-09-12T07:41:31.417Z,100852.94
2022-09-12T07:43:59.541Z,100853.06
2022-09-12T07:46:27.136Z,100858.25
2022-09-12T07:48:55.341Z,100865.31
2022-09-12T07:51:23.215Z,100851.34
2022-09-12T07:53:50.402Z,100855.13
2022-09-12T07:56:18.116Z,100856.88
2022-09-12T07:58:44.773Z,100850.84
2022-09-12T08:01:17.630Z,100846.59
2022-09-12T08:03:47.188Z,100853.16
2022-09-12T08:06:16.509Z,100855.22
2022-09-12T08:08:43.488Z,100853.28
2022-09-12T08:11:12.889Z,100855.84
2022-09-12T08:13:40.984Z,100853.94
2022-09-12T08:16:13.462Z,100858.91
2022-09-12T08:18:40.877Z,100860.38
2022-09-12T08:21:11.948Z,100858.44
2022-09-12T08:23:38.551Z,100859.06
2022-09-12T08:26:06.567Z,100857.50
2022-09-12T08:28:35.087Z,100868.16
2022-09-12T08:31:02.529Z,100859.44
2022-09-12T08:33:33.486Z,100864.88
2022-09-12T08:36:04.688Z,100858.47
2022-09-12T08:38:31.799Z,100858.47
2022-09-12T08:41:08.964Z,100856.28
2022-09-12T08:43:57.544Z,100862.94
2022-09-12T08:46:51.625Z,100851.81
2022-09-12T08:49:40.851Z,100862.72
2022-09-12T08:52:15.454Z,100858.47
2022-09-12T08:54:44.873Z,100847.19
2022-09-12T08:57:14.292Z,100853.84
2022-09-12T08:59:45.381Z,100850.81
2022-09-12T09:02:45.788Z,100851.53
2022-09-12T09:05:23.727Z,100839.50
2022-09-12T09:08:15.869Z,100842.00
2022-09-12T09:10:59.608Z,100847.00
2022-09-12T09:14:17.485Z,100848.06
2022-09-12T09:16:48.064Z,100852.69
2022-09-12T09:19:34.018Z,100846.19
2022-09-12T09:22:05.813Z,100847.03
2022-09-12T09:24:44.609Z,100835.38
2022-09-12T09:27:37.294Z,100842.53
2022-09-12T09:30:19.772Z,100842.53
2022-09-12T09:32:51.002Z,100840.25
2022-09-12T09:35:41.115Z,100836.41
2022-09-12T09:38:24.588Z,100828.75
2022-09-12T09:41:09.845Z,100828.06
2022-09-12T09:43:37.988Z,100826.69
2022-09-12T09:46:05.392Z,100813.75
2022-09-12T09:48:35.720Z,100821.50
2022-09-12T09:51:06.947Z,100818.38
2022-09-12T09:53:50.487Z,100812.25
2022-09-12T09:56:33.161Z,100808.19
2022-09-12T09:59:26.085Z,100806.03
2022-09-12T10:02:03.883Z,100803.84
2022-09-12T10:04:41.839Z,100806.75
2022-09-12T10:07:19.225Z,100800.41
2022-09-12T10:10:14.397Z,100788.84
2022-09-12T10:12:41.426Z,100787.81
2022-09-12T10:15:26.575Z,100789.38
2022-09-12T10:17:55.392Z,100782.41
2022-09-12T10:20:34.158Z,100777.06
2022-09-12T10:23:03.913Z,100777.88
2022-09-12T10:25:30.841Z,100775.09
2022-09-12T10:28:00.418Z,100770.44
2022-09-12T10:30:28.664Z,100767.59
2022-09-12T10:33:06.864Z,100765.16
2022-09-12T10:35:45.360Z,100755.84
2022-09-12T10:38:32.107Z,100760.47
2022-09-12T10:41:03.443Z,100758.88
2022-09-12T10:43:33.206Z,100761.16
2022-09-12T10:46:19.766Z,100750.38
2022-09-12T10:48:48.088Z,100751.44
2022-09-12T10:51:23.828Z,100755.09
2022-09-12T10:54:02.444Z,100752.44
2022-09-12T10:56:33.503Z,100750.78
2022-09-12T10:59:20.382Z,100748.50
2022-09-12T11:01:52.495Z,100739.75
2022-09-12T11:04:46.299Z,100739.19
2022-09-12T11:07:46.766Z,100733.13
2022-09-12T11:10:41.446Z,100740.16
2022-09-12T11:13:23.585Z,100732.13
2022-09-12T11:16:28.659Z,100730.22
2022-09-12T11:19:21.974Z,100716.44
2022-09-12T11:22:07.429Z,100719.75
2022-09-12T11:25:03.852Z,100717.25
2022-09-12T11:27:52.273Z,100714.03
2022-09-12T11:30:18.859Z,100705.03
2022-09-12T11:33:09.192Z,100699.16
2022-09-12T11:35:45.340Z,100699.38
2022-09-12T11:38:30.759Z,100695.88
2022-09-12T11:41:09.228Z,100694.50
2022-09-12T11:43:44.311Z,100686.63
2022-09-12T11:46:14.155Z,100689.91
2022-09-12T11:48:47.016Z,100684.94
2022-09-12T11:51:28.719Z,100684.19
2022-09-12T11:54:24.919Z,100686.69
2022-09-12T11:57:03.363Z,100677.47
2022-09-12T11:59:42.965Z,100679.25
2022-09-12T12:02:30.781Z,100687.41
2022-09-12T12:05:09.740Z,100680.13
2022-09-12T12:07:54.679Z,100676.72
2022-09-12T12:10:26.199Z,100673.09
2022-09-12T12:12:56.363Z,100669.25
2022-09-12T12:15:25.685Z,100664.47
2022-09-12T12:18:08.273Z,100661.66
2022-09-12T12:20:36.037Z,100665.00
2022-09-12T12:23:03.937Z,100673.47
2022-09-12T12:26:00.690Z,100660.88
2022-09-12T12:28:42.600Z,100661.72
2022-09-12T12:31:10.700Z,100657.78
2022-09-12T12:33:37.299Z,100649.69
2022-09-12T12:36:10.623Z,100644.34
2022-09-12T12:38:39.330Z,100645.13
2022-09-12T12:41:28.840Z,100638.97
2022-09-12T12:43:57.505Z,100636.44
2022-09-12T12:46:26.792Z,100636.47
2022-09-12T12:49:27.494Z,100627.78
2022-09-12T12:51:53.937Z,100620.47
2022-09-12T12:54:48.572Z,100612.34
2022-09-12T12:57:35.985Z,100615.44
2022-09-12T13:00:09.269Z,100614.03
2022-09-12T13:02:42.284Z,100620.22
2022-09-12T13:05:24.429Z,100611.78
2022-09-12T13:08:11.872Z,100602.22
2022-09-12T13:10:38.849Z,100601.94
2022-09-12T13:13:08.564Z,100609.81
2022-09-12T13:15:38.158Z,100603.38
2022-09-12T13:18:13.564Z,100600.56
2022-09-12T13:20:59.763Z,100600.81
2022-09-12T13:23:31.381Z,100588.75
2022-09-12T13:26:00.508Z,100584.78
2022-09-12T13:28:28.611Z,100578.66
2022-09-12T13:31:03.744Z,100583.13
2022-09-12T13:33:45.857Z,100570.75
2022-09-12T13:36:31.352Z,100574.16
2022-09-12T13:39:24.911Z,100573.00
2022-09-12T13:42:16.428Z,100562.94
2022-09-12T13:44:47.150Z,100564.88
2022-09-12T13:47:18.728Z,100562.34
2022-09-12T13:49:46.999Z,100564.03
2022-09-12T13:52:21.245Z,100565.44
2022-09-12T13:54:52.236Z,100562.34
2022-09-12T13:57:29.644Z,100562.34
2022-09-12T13:59:58.076Z,100552.50
2022-09-12T14:02:28.734Z,100550.47
2022-09-12T14:06:20.543Z,100553.81
2022-09-12T14:08:48.159Z,100551.88
2022-09-12T14:11:27.121Z,100551.03
2022-09-12T14:13:56.248Z,100544.88
2022-09-12T14:16:25.881Z,100535.84
2022-09-12T14:18:52.870Z,100537.50
2022-09-12T14:21:30.233Z,100524.91
2022-09-12T14:23:57.964Z,100530.22
2022-09-12T14:26:28.215Z,100531.88
2022-09-12T14:28:55.071Z,100525.78
2022-09-12T14:31:31.188Z,100519.03
2022-09-12T14:34:18.818Z,100517.59
2022-09-12T14:36:50.722Z,100512.28
2022-09-12T14:39:31.931Z,100506.13
2022-09-12T14:42:20.768Z,100500.19
2022-09-12T14:45:05.867Z,100500.09
2022-09-12T14:47:40.811Z,100496.44
2022-09-12T14:50:20.575Z,100502.06
2022-09-12T14:53:04.694Z,100493.06
2022-09-12T14:55:33.723Z,100489.97
2022-09-12T14:58:15.463Z,100488.03
2022-09-12T15:00:57.991Z,100490.81
2022-09-12T15:03:36.786Z,100486.00
2022-09-12T15:06:05.715Z,100484.56
2022-09-12T15:08:32.366Z,100474.47
2022-09-12T15:11:00.118Z,100478.41
2022-09-12T15:13:28.683Z,100474.53
2022-09-12T15:15:57.571Z,100482.09
2022-09-12T15:18:26.324Z,100478.66
2022-09-12T15:20:57.198Z,100471.84
2022-09-12T15:23:32.808Z,100465.44
2022-09-12T15:26:00.309Z,100469.38
2022-09-12T15:28:27.821Z,100454.19
2022-09-12T15:30:56.464Z,100452.72
2022-09-12T15:33:25.223Z,100461.41
2022-09-12T15:35:52.955Z,100458.34
2022-09-12T15:38:25.620Z,100464.47
2022-09-12T15:40:53.850Z,100457.47
2022-09-12T15:43:22.325Z,100460.84
2022-09-12T15:45:52.243Z,100463.63
2022-09-12T15:48:20.496Z,100458.59
2022-09-12T15:50:47.330Z,100458.03
2022-09-12T15:53:16.242Z,100458.53
2022-09-12T15:55:43.636Z,100452.81
2022-09-12T15:58:10.617Z,100461.19
2022-09-12T16:00:37.268Z,100450.53
2022-09-12T16:03:03.985Z,100454.50
2022-09-12T16:05:30.576Z,100448.59
2022-09-12T16:07:57.104Z,100455.66
2022-09-12T16:10:27.373Z,100446.59
2022-09-12T16:12:53.960Z,100442.97
2022-09-12T16:15:25.200Z,100438.28
2022-09-12T16:17:52.145Z,100428.81
2022-09-12T16:20:19.470Z,100428.31
2022-09-12T16:22:46.334Z,100413.94
2022-09-12T16:25:12.936Z,100424.38
2022-09-12T16:27:39.835Z,100415.34
2022-09-12T16:30:07.757Z,100410.50
2022-09-12T16:32:35.063Z,100418.06
2022-09-12T16:35:01.864Z,100403.44
2022-09-12T16:37:28.970Z,100408.81
2022-09-12T16:39:55.585Z,100395.00
2022-09-12T16:42:22.390Z,100396.56
2022-09-12T16:44:48.897Z,100396.59
2022-09-12T16:47:15.440Z,100408.31
2022-09-12T16:49:42.149Z,100392.91
2022-09-12T16:52:10.113Z,100400.25
2022-09-12T16:54:36.693Z,100396.94
2022-09-12T16:57:05.133Z,100399.16
2022-09-12T16:59:32.404Z,100403.56
2022-09-12T17:01:59.201Z,100388.34
2022-09-12T17:04:25.839Z,100384.94
2022-09-12T17:06:52.375Z,100382.28
2022-09-12T17:09:19.181Z,100381.19
2022-09-12T17:11:47.677Z,100380.88
2022-09-12T17:14:14.354Z,100375.91
2022-09-12T17:16:46.937Z,100384.53
2022-09-12T17:19:18.019Z,100376.19
2022-09-12T17:21:47.484Z,100377.91
2022-09-12T17:24:14.997Z,100375.16
2022-09-12T17:26:41.724Z,100370.25
2022-09-12T17:29:08.271Z,100370.28
2022-09-12T17:31:35.084Z,100358.50
2022-09-12T17:34:02.287Z,100362.75
2022-09-12T17:36:32.549Z,100360.84
2022-09-12T17:38:59.817Z,100358.59
2022-09-12T17:41:30.778Z,100363.69
2022-09-12T17:43:58.864Z,100359.22
2022-09-12T17:46:29.823Z,100361.50
2022-09-12T17:48:58.231Z,100364.59
2022-09-12T17:51:26.160Z,100363.50
2022-09-12T17:54:11.587Z,100359.84
2022-09-12T17:56:39.517Z,100360.44
2022-09-12T17:59:07.542Z,100370.53
2022-09-12T18:01:53.369Z,100362.41
2022-09-12T18:04:20.045Z,100373.03
2022-09-12T18:06:50.069Z,100369.13
2022-09-12T18:09:20.221Z,100364.94
2022-09-12T18:11:48.178Z,100356.75
2022-09-12T18:14:15.054Z,100356.75
2022-09-12T18:16:42.597Z,100350.59
2022-09-12T18:19:10.962Z,100350.31
2022-09-12T18:21:38.481Z,100348.63
2022-09-12T18:24:06.029Z,100353.38
2022-09-12T18:26:33.200Z,100352.25
2022-09-12T18:28:59.728Z,100356.44
2022-09-12T18:31:29.015Z,100356.44
2022-09-12T18:33:56.927Z,100357.00
2022-09-12T18:36:23.790Z,100359.50
2022-09-12T18:38:50.359Z,100362.03
2022-09-12T18:41:20.933Z,100352.47
2022-09-12T18:43:48.530Z,100372.06
2022-09-12T18:46:18.184Z,100369.25
2022-09-12T18:48:45.859Z,100367.56
2022-09-12T18:51:18.154Z,100362.81
2022-09-12T18:53:50.956Z,100352.16
2022-09-12T18:56:17.756Z,100344.56
2022-09-12T18:58:44.643Z,100349.06
2022-09-12T19:01:31.927Z,100347.06
2022-09-12T19:04:00.816Z,100344.03
2022-09-12T19:06:29.517Z,100332.31
2022-09-12T19:08:57.676Z,100335.94
2022-09-12T19:11:26.223Z,100332.91
2022-09-12T19:13:54.154Z,100329.25
2022-09-12T19:16:23.999Z,100329.50
2022-09-12T19:18:52.297Z,100327.00
2022-09-12T19:21:22.313Z,100329.50
2022-09-12T19:23:49.480Z,100328.13
2022-09-12T19:26:17.743Z,100326.44
2022-09-12T19:28:45.457Z,100318.06
2022-09-12T19:31:15.887Z,100323.34
2022-09-12T19:33:42.755Z,100329.25
2022-09-12T19:36:33.643Z,100325.03
2022-09-12T19:38:59.870Z,100329.25
2022-09-12T19:41:26.714Z,100332.06
2022-09-12T19:43:55.199Z,100334.28
2022-09-12T19:46:24.092Z,100326.16
2022-09-12T19:48:52.453Z,100318.56
2022-09-12T19:51:20.587Z,100321.91
2022-09-12T19:53:47.680Z,100323.88
2022-09-12T19:56:14.858Z,100326.69
2022-09-12T19:58:44.478Z,100316.31
2022-09-12T20:01:18.874Z,100319.38
2022-09-12T20:03:46.774Z,100316.03
2022-09-12T20:06:17.032Z,100318.25
2022-09-12T20:08:44.299Z,100322.19
2022-09-12T20:11:14.168Z,100310.41
2022-09-12T20:13:41.267Z,100311.53
2022-09-12T20:16:19.046Z,100302.56
2022-09-12T20:18:52.184Z,100305.34
2022-09-12T20:21:20.508Z,100312.03
2022-09-12T20:23:47.221Z,100309.53
2022-09-12T20:26:13.791Z,100303.06
2022-09-12T20:28:41.594Z,100307.28
2022-09-12T20:31:12.303Z,100299.72
2022-09-12T20:33:39.428Z,100292.72
2022-09-12T20:36:18.695Z,100289.09
2022-09-12T20:38:50.814Z,100284.03
2022-09-12T20:41:18.880Z,100277.81
2022-09-12T20:43:48.931Z,100283.16
2022-09-12T20:46:19.731Z,100264.41
2022-09-12T20:48:48.047Z,100267.19
2022-09-12T20:51:14.597Z,100263.03
2022-09-12T20:53:41.566Z,100264.44
2022-09-12T20:56:08.435Z,100260.00
2022-09-12T20:58:36.326Z,100252.72
2022-09-12T21:01:08.937Z,100241.03
2022-09-12T21:03:39.670Z,100225.94
2022-09-12T21:06:08.183Z,100227.59
2022-09-12T21:08:35.619Z,100220.91
2022-09-12T21:11:02.660Z,100224.81
2022-09-12T21:13:29.380Z,100227.91
2022-09-12T21:16:03.195Z,100214.75
2022-09-12T21:18:31.464Z,100220.34
2022-09-12T21:20:58.168Z,100216.13
2022-09-12T21:23:25.984Z,100216.41
2022-09-12T21:25:52.948Z,100202.97
2022-09-12T21:28:20.525Z,100211.38
2022-09-12T21:30:51.262Z,100216.41
2022-09-12T21:33:20.271Z,100217.53
2022-09-12T21:35:47.762Z,100227.59
2022-09-12T21:38:15.393Z,100225.63
2022-09-12T21:40:42.041Z,100209.13
2022-09-12T21:43:12.553Z,100214.75
2022-09-12T21:45:40.313Z,100221.44
2022-09-12T21:48:06.898Z,100231.50
2022-09-12T21:50:33.538Z,100229.84
2022-09-12T21:53:00.276Z,100215.84
2022-09-12T21:55:27.351Z,100222.22
2022-09-12T21:57:54.919Z,100226.97
2022-09-12T22:00:21.945Z,100223.59
2022-09-12T22:02:48.856Z,100230.03
2022-09-12T22:05:15.616Z,100216.06
2022-09-12T22:07:42.182Z,100215.75
2022-09-12T22:10:09.236Z,100215.19
2022-09-12T22:12:35.792Z,100223.59
2022-09-12T22:15:17.466Z,100216.91
2022-09-12T22:17:49.219Z,100236.47
2022-09-12T22:20:15.851Z,100235.09
2022-09-12T22:23:01.214Z,100232.88
2022-09-12T22:25:27.972Z,100234.53
2022-09-12T22:27:54.914Z,100248.31
2022-09-12T22:30:22.272Z,100241.25
2022-09-12T22:32:50.369Z,100229.81
2022-09-12T22:35:18.378Z,100218.63
2022-09-12T22:37:46.741Z,100223.63
2022-09-12T22:40:13.687Z,100221.94
2022-09-12T22:42:40.370Z,100227.25
2022-09-12T22:45:07.739Z,100224.44
2022-09-12T22:47:34.368Z,100219.78
2022-09-12T22:50:01.156Z,100222.50
2022-09-12T22:52:27.749Z,100223.13
2022-09-12T22:54:54.459Z,100230.13
2022-09-12T22:57:20.955Z,100227.59
2022-09-12T22:59:47.707Z,100227.59
2022-09-12T23:02:14.289Z,100232.63
2022-09-12T23:04:40.921Z,100222.00
2022-09-12T23:07:07.518Z,100225.34
2022-09-12T23:09:35.576Z,100232.63
2022-09-12T23:12:02.728Z,100246.91
2022-09-12T23:14:29.344Z,100241.03
2022-09-12T23:16:56.046Z,100240.44
2022-09-12T23:19:22.825Z,100241.53
2022-09-12T23:21:49.759Z,100244.88
2022-09-12T23:24:16.389Z,100237.56
2022-09-12T23:26:43.128Z,100227.25
2022-09-12T23:29:09.763Z,100225.91
2022-09-12T23:31:36.542Z,100223.94
2022-09-12T23:34:05.936Z,100223.94
2022-09-12T23:36:33.334Z,100213.03
2022-09-12T23:38:59.890Z,100206.56
2022-09-12T23:41:26.885Z,100213.28
2022-09-12T23:43:53.623Z,100206.56
2022-09-12T23:46:21.179Z,100209.13
2022-09-12T23:48:48.089Z,100205.19
2022-09-12T23:51:14.924Z,100209.13
2022-09-12T23:53:42.073Z,100208.00
2022-09-12T23:56:08.675Z,100197.94
2022-09-12T23:58:35.280Z,100198.78
